Thunder radar more information blitzortung!


Radar de pluja more information rain snow radar


Visita la nostra xarxa de llocs de meteo:

Template documentation
and downloads

And another site



No particular awareness of the weather is required.    There are no Weather-warnings

Pagina Historial Weather Underground text

Diari Resum Octubre 29, 2017 Unitats:  Mètric    Imperial   Tant
« Previous Dia
SegĂźent Dia »
Diari Setmana Mensual Anual Personalitzada
  Maxima: Minima: Media:
Temperatura: 22.1 °C 9.7 °C 16.3 °C
Punt de rosada: 10.5 °C 4.2 °C 7 °C
Humitat: 76 % 42 % 55 %
Wind Speed: 14.8 km/h 0.0 km/h 4.9 km/h
RĂ fegues de vent: 14.8 km/h - -
Vent:- - SSE
Pression baro: 1022.9 hPa 1016.8 hPa -
Precipitacions: 0.0 mm    
Historical Graphs
 
 
Dades de taula per Octubre 29, 2017
Temps Temperatura Punt de rosada Pression baro Vent Wind Speed RĂ fegues de vent Humitat Rainfall Rate (Hourly)
00:00 13.6 °C 8.4 °C 1021.9 hPa ENE 3.7 km/h 3.7 km/h 71 % 0.0 mm
00:05 13.6 °C 8.7 °C 1021.9 hPa East 2.3 km/h 2.3 km/h 72 % 0.0 mm
00:10 13.5 °C 8.6 °C 1021.9 hPa East 3.7 km/h   72 % 0.0 mm
00:15 13.6 °C 8.7 °C 1021.9 hPa West 1.9 km/h 1.9 km/h 72 % 0.0 mm
00:20 13.5 °C 8.6 °C 1021.9 hPa WNW 1.9 km/h   72 % 0.0 mm
00:25 13.4 °C 8.7 °C 1020.9 hPa Calm     73 % 0.0 mm
00:30 13.2 °C 8.3 °C 1020.9 hPa SSE 3.7 km/h 3.7 km/h 72 % 0.0 mm
00:36 13.1 °C 8.4 °C 1020.9 hPa NNE 3.7 km/h 3.7 km/h 73 % 0.0 mm
00:40 10.4 °C 5.9 °C 1021.9 hPa Calm   3.2 km/h 74 % 0.0 mm
00:41 13.0 °C 8.3 °C 1020.9 hPa Calm     73 % 0.0 mm
00:46 12.9 °C 8.4 °C 1020.9 hPa Calm     74 % 0.0 mm
00:50 10.4 °C 5.9 °C 1021.9 hPa WSW 1.6 km/h 3.2 km/h 74 % 0.0 mm
00:51 12.7 °C 8.2 °C 1020.9 hPa NE 1.9 km/h   74 % 0.0 mm
00:56 12.6 °C 8.3 °C 1021.9 hPa Calm     75 % 0.0 mm
01:00 10.8 °C 6.3 °C 1021.9 hPa NNE 3.2 km/h 4.8 km/h 74 % 0.0 mm
01:10 10.6 °C 6.2 °C 1021.9 hPa Calm   3.2 km/h 74 % 0.0 mm
01:20 10.5 °C 6.1 °C 1022.9 hPa West 1.6 km/h 3.2 km/h 74 % 0.0 mm
01:30 10.4 °C 5.9 °C 1021.9 hPa WNW 1.6 km/h 3.2 km/h 74 % 0.0 mm
01:40 10.4 °C 5.9 °C 1021.9 hPa NNW 1.6 km/h 3.2 km/h 74 % 0.0 mm
01:50 10.3 °C 5.9 °C 1021.9 hPa North 1.6 km/h 3.2 km/h 74 % 0.0 mm
02:00 10.0 °C 5.6 °C 1021.9 hPa NNW 1.6 km/h 1.6 km/h 74 % 0.0 mm
02:10 9.9 °C 5.5 °C 1021.9 hPa West 1.6 km/h 3.2 km/h 74 % 0.0 mm
02:20 9.7 °C 5.5 °C 1021.9 hPa West 1.6 km/h 3.2 km/h 75 % 0.0 mm
02:30 9.7 °C 5.5 °C 1021.9 hPa Calm   3.2 km/h 75 % 0.0 mm
02:40 9.7 °C 5.7 °C 1021.9 hPa Calm     76 % 0.0 mm
02:50 10.0 °C 5.9 °C 1021.9 hPa Calm     76 % 0.0 mm
02:00 10.4 °C 6.3 °C 1022.9 hPa Calm   1.6 km/h 76 % 0.0 mm
02:10 10.7 °C 6.7 °C 1022.9 hPa Calm     76 % 0.0 mm
02:20 10.8 °C 6.6 °C 1021.9 hPa Calm   3.2 km/h 75 % 0.0 mm
02:30 11.5 °C 7.2 °C 1022.9 hPa Calm   1.6 km/h 75 % 0.0 mm
02:40 11.2 °C 6.7 °C 1022.9 hPa SW 1.6 km/h 3.2 km/h 74 % 0.0 mm
02:50 11.6 °C 7.1 °C 1022.9 hPa SW 3.2 km/h 3.2 km/h 74 % 0.0 mm
03:00 12.4 °C 7.7 °C 1022.9 hPa SSW 1.6 km/h 3.2 km/h 73 % 0.0 mm
03:10 12.4 °C 7.5 °C 1022.9 hPa SSW 1.6 km/h 3.2 km/h 72 % 0.0 mm
03:20 12.7 °C 7.6 °C 1022.9 hPa SW 1.6 km/h 3.2 km/h 71 % 0.0 mm
03:30 12.9 °C 7.6 °C 1022.9 hPa SSW 3.2 km/h 4.8 km/h 70 % 0.0 mm
03:40 13.8 °C 8.2 °C 1022.9 hPa SSW 1.6 km/h 4.8 km/h 69 % 0.0 mm
03:50 14.0 °C 7.9 °C 1022.9 hPa South 1.6 km/h 3.2 km/h 67 % 0.0 mm
04:00 13.8 °C 7.8 °C 1021.9 hPa ESE 1.6 km/h 3.2 km/h 67 % 0.0 mm
10:04 14.4 °C 8.1 °C 1021.9 hPa ENE 6.4 km/h 6.4 km/h 66 % 0.0 mm
10:05 14.4 °C 8.1 °C 1021.9 hPa ENE 6.4 km/h 6.4 km/h 66 % 0.0 mm
10:10 14.4 °C 8.1 °C 1021.9 hPa NE 11.1 km/h 11.1 km/h 66 % 0.0 mm
10:15 14.2 °C 7.9 °C 1021.9 hPa NNE 9.3 km/h 9.3 km/h 66 % 0.0 mm
10:20 14.3 °C 7.8 °C 1021.9 hPa ENE 5.6 km/h 5.6 km/h 65 % 0.0 mm
10:25 14.5 °C 8.0 °C 1021.9 hPa NE 7.4 km/h 7.4 km/h 65 % 0.0 mm
10:30 14.8 °C 8.3 °C 1021.9 hPa NE 2.6 km/h   65 % 0.0 mm
10:35 15.0 °C 8.4 °C 1021.9 hPa NE 7.4 km/h 7.4 km/h 65 % 0.0 mm
10:40 14.9 °C 8.2 °C 1021.9 hPa NNE 7.4 km/h 7.4 km/h 64 % 0.0 mm
10:45 15.1 °C 8.3 °C 1021.9 hPa NNE 3.7 km/h 3.7 km/h 64 % 0.0 mm
10:50 15.4 °C 8.8 °C 1021.9 hPa North 3.7 km/h 3.7 km/h 65 % 0.0 mm
10:55 15.6 °C 8.8 °C 1020.9 hPa NNE 7.4 km/h 7.4 km/h 64 % 0.0 mm
11:00 15.8 °C 9.0 °C 1020.9 hPa ENE 7.4 km/h 7.4 km/h 64 % 0.0 mm
11:05 16.0 °C 9.2 °C 1020.9 hPa North 3.9 km/h 3.9 km/h 64 % 0.0 mm
11:10 15.9 °C 8.8 °C 1021.9 hPa NE 9.3 km/h 9.3 km/h 63 % 0.0 mm
11:15 15.9 °C 8.6 °C 1021.9 hPa NE 9.3 km/h 9.3 km/h 62 % 0.0 mm
11:20 16.3 °C 9.2 °C 1021.9 hPa NE 7.4 km/h 7.4 km/h 63 % 0.0 mm
11:25 16.4 °C 9.1 °C 1021.9 hPa NNE 7.4 km/h 7.4 km/h 62 % 0.0 mm
11:30 16.7 °C 9.4 °C 1021.9 hPa NNE 5.6 km/h 5.6 km/h 62 % 0.0 mm
11:35 16.8 °C 9.5 °C 1021.9 hPa NNE 11.1 km/h 11.1 km/h 62 % 0.0 mm
11:40 16.6 °C 9.1 °C 1020.9 hPa NNE 7.4 km/h 7.4 km/h 61 % 0.0 mm
11:45 16.8 °C 9.2 °C 1020.9 hPa NNE 7.4 km/h 7.4 km/h 61 % 0.0 mm
11:50 17.0 °C 9.2 °C 1020.9 hPa ENE 5.6 km/h 5.6 km/h 60 % 0.0 mm
11:55 17.1 °C 9.0 °C 1020.9 hPa NNE 7.4 km/h 7.4 km/h 59 % 0.0 mm
12:00 17.1 °C 9.0 °C 1020.9 hPa ENE 9.3 km/h 9.3 km/h 59 % 0.0 mm
12:05 17.3 °C 9.2 °C 1020.9 hPa NNW 7.4 km/h 7.4 km/h 59 % 0.0 mm
12:10 17.3 °C 8.9 °C 1020.9 hPa NE 9.3 km/h 9.3 km/h 58 % 0.0 mm
12:15 17.3 °C 8.9 °C 1020.9 hPa NNE 11.1 km/h 11.1 km/h 58 % 0.0 mm
12:20 17.7 °C 9.3 °C 1020.9 hPa NNE 9.3 km/h 9.3 km/h 58 % 0.0 mm
12:25 17.8 °C 9.2 °C 1019.9 hPa NNE 7.4 km/h 7.4 km/h 57 % 0.0 mm
12:30 18.2 °C 9.8 °C 1019.9 hPa NNE 9.7 km/h 9.7 km/h 58 % 0.0 mm
12:35 18.2 °C 9.6 °C 1019.9 hPa NNE 5.6 km/h 5.6 km/h 57 % 0.0 mm
12:40 18.4 °C 9.7 °C 1019.9 hPa NNE 5.6 km/h 5.6 km/h 57 % 0.0 mm
12:45 18.7 °C 10.0 °C 1019.9 hPa NE 5.6 km/h 5.6 km/h 57 % 0.0 mm
12:50 18.8 °C 9.8 °C 1019.9 hPa NNE 5.6 km/h 5.6 km/h 56 % 0.0 mm
12:55 19.0 °C 9.8 °C 1019.9 hPa ENE 7.4 km/h 7.4 km/h 55 % 0.0 mm
13:00 19.1 °C 9.8 °C 1019.9 hPa NNE 5.6 km/h 5.6 km/h 55 % 0.0 mm
13:05 19.3 °C 10.1 °C 1019.9 hPa ENE 5.6 km/h 5.6 km/h 55 % 0.0 mm
13:10 19.5 °C 9.9 °C 1019.9 hPa NE 3.7 km/h 3.9 km/h 54 % 0.0 mm
13:15 19.6 °C 10.3 °C 1019.9 hPa ENE 7.9 km/h 7.9 km/h 55 % 0.0 mm
13:20 19.4 °C 9.8 °C 1019.9 hPa NNW 7.4 km/h 7.4 km/h 54 % 0.0 mm
13:25 19.5 °C 9.9 °C 1019.9 hPa NNE 8.7 km/h 8.7 km/h 54 % 0.0 mm
13:30 19.3 °C 9.5 °C 1019.9 hPa NNE 11.1 km/h 11.1 km/h 53 % 0.0 mm
13:35 19.4 °C 9.6 °C 1019.9 hPa WNW 9.3 km/h 9.3 km/h 53 % 0.0 mm
13:40 19.6 °C 9.8 °C 1019.9 hPa NNE 7.4 km/h 7.4 km/h 53 % 0.0 mm
13:45 19.6 °C 9.8 °C 1019.9 hPa ENE 6.4 km/h 6.4 km/h 53 % 0.0 mm
13:50 19.6 °C 9.8 °C 1019.9 hPa NW 7.4 km/h 7.4 km/h 53 % 0.0 mm
13:55 19.8 °C 9.9 °C 1018.8 hPa NNE 3.7 km/h 3.7 km/h 53 % 0.0 mm
14:00 20.0 °C 9.8 °C 1018.8 hPa SE 3.7 km/h 3.7 km/h 52 % 0.0 mm
14:05 20.7 °C 10.5 °C 1018.8 hPa WSW 6.1 km/h 6.1 km/h 52 % 0.0 mm
14:10 21.1 °C 10.3 °C 1018.8 hPa WSW 11.9 km/h 11.9 km/h 50 % 0.0 mm
14:15 21.2 °C 10.1 °C 1018.8 hPa SW 11.1 km/h 11.1 km/h 49 % 0.0 mm
14:20 21.5 °C 10.3 °C 1018.8 hPa SW 5.6 km/h 5.6 km/h 49 % 0.0 mm
14:25 21.6 °C 10.1 °C 1018.8 hPa West 11.1 km/h 11.1 km/h 48 % 0.0 mm
14:30 21.5 °C 10.0 °C 1018.8 hPa WSW 11.1 km/h 11.1 km/h 48 % 0.0 mm
14:35 21.7 °C 9.9 °C 1018.8 hPa West 7.9 km/h 7.9 km/h 47 % 0.0 mm
14:40 21.8 °C 10.0 °C 1017.8 hPa WSW 7.9 km/h 7.9 km/h 47 % 0.0 mm
14:45 21.7 °C 9.2 °C 1017.8 hPa WSW 13.0 km/h 13.0 km/h 45 % 0.0 mm
14:50 21.7 °C 9.2 °C 1017.8 hPa WSW 11.1 km/h 11.1 km/h 45 % 0.0 mm
14:55 21.6 °C 9.2 °C 1017.8 hPa NW 11.1 km/h 11.1 km/h 45 % 0.0 mm
15:00 21.8 °C 9.3 °C 1017.8 hPa WNW 7.4 km/h 7.4 km/h 45 % 0.0 mm
15:05 21.8 °C 9.3 °C 1017.8 hPa SW 6.9 km/h 6.9 km/h 45 % 0.0 mm
15:15 21.7 °C 8.9 °C 1017.8 hPa West 5.6 km/h 5.6 km/h 44 % 0.0 mm
15:20 21.5 °C 8.7 °C 1017.8 hPa West 7.4 km/h 7.4 km/h 44 % 0.0 mm
15:25 21.9 °C 9.1 °C 1017.8 hPa West 3.7 km/h 3.7 km/h 44 % 0.0 mm
15:30 21.9 °C 9.4 °C 1017.8 hPa WSW 8.7 km/h 8.7 km/h 45 % 0.0 mm
15:35 21.9 °C 9.1 °C 1017.8 hPa WSW 9.3 km/h 9.3 km/h 44 % 0.0 mm
15:40 22.1 °C 9.3 °C 1016.8 hPa SW 7.4 km/h 7.4 km/h 44 % 0.0 mm
15:45 22.1 °C 9.3 °C 1016.8 hPa West 7.4 km/h 7.4 km/h 44 % 0.0 mm
15:50 22.0 °C 9.2 °C 1016.8 hPa West 5.8 km/h 5.8 km/h 44 % 0.0 mm
15:55 21.9 °C 9.1 °C 1017.8 hPa West 7.4 km/h 7.4 km/h 44 % 0.0 mm
16:00 21.9 °C 9.1 °C 1017.8 hPa West 7.4 km/h 7.4 km/h 44 % 0.0 mm
16:05 21.7 °C 8.6 °C 1017.8 hPa WNW 7.4 km/h 7.4 km/h 43 % 0.0 mm
16:10 21.8 °C 8.7 °C 1017.8 hPa West 5.6 km/h 5.6 km/h 43 % 0.0 mm
16:15 21.5 °C 8.4 °C 1017.8 hPa West 6.9 km/h 6.9 km/h 43 % 0.0 mm
16:20 21.3 °C 7.9 °C 1017.8 hPa West 5.6 km/h 5.6 km/h 42 % 0.0 mm
16:25 21.3 °C 7.9 °C 1017.8 hPa West 14.8 km/h 14.8 km/h 42 % 0.0 mm
16:30 21.2 °C 7.8 °C 1017.8 hPa West 9.3 km/h 9.3 km/h 42 % 0.0 mm
16:35 21.1 °C 7.7 °C 1017.8 hPa NNW 9.3 km/h 9.3 km/h 42 % 0.0 mm
16:40 21.0 °C 7.6 °C 1018.8 hPa NW 5.6 km/h 5.6 km/h 42 % 0.0 mm
16:45 20.7 °C 7.3 °C 1018.8 hPa WNW 3.7 km/h 3.7 km/h 42 % 0.0 mm
16:50 20.7 °C 7.3 °C 1018.8 hPa WNW 7.4 km/h 7.4 km/h 42 % 0.0 mm
16:55 20.6 °C 7.6 °C 1017.8 hPa WNW 3.7 km/h 3.7 km/h 43 % 0.0 mm
17:00 20.5 °C 7.5 °C 1017.8 hPa SSW 6.9 km/h 6.9 km/h 43 % 0.0 mm
17:05 20.4 °C 7.1 °C 1017.8 hPa SW 3.7 km/h 3.7 km/h 42 % 0.0 mm
17:10 20.3 °C 7.3 °C 1016.8 hPa SW 3.7 km/h 3.7 km/h 43 % 0.0 mm
17:15 20.1 °C 6.8 °C 1016.8 hPa WSW 7.4 km/h 7.4 km/h 42 % 0.0 mm
17:20 19.8 °C 6.5 °C 1016.8 hPa West 5.8 km/h 5.8 km/h 42 % 0.0 mm
17:21 19.8 °C 6.5 °C 1016.8 hPa West 5.8 km/h 5.8 km/h 42 % 0.0 mm
17:26 19.7 °C 6.4 °C 1017.8 hPa WSW 3.9 km/h 3.9 km/h 42 % 0.0 mm
17:31 19.5 °C 6.2 °C 1017.8 hPa West 5.8 km/h 5.8 km/h 42 % 0.0 mm
17:36 19.1 °C 5.9 °C 1017.8 hPa West 7.4 km/h 7.4 km/h 42 % 0.0 mm
17:41 18.9 °C 5.7 °C 1017.8 hPa WNW 9.3 km/h 9.3 km/h 42 % 0.0 mm
17:46 18.7 °C 5.5 °C 1017.8 hPa SW 9.3 km/h 9.3 km/h 42 % 0.0 mm
17:51 18.4 °C 5.2 °C 1017.8 hPa West 5.6 km/h 5.6 km/h 42 % 0.0 mm
17:56 18.2 °C 5.1 °C 1017.8 hPa West 7.4 km/h 7.4 km/h 42 % 0.0 mm
18:01 18.1 °C 5.0 °C 1017.8 hPa WNW 5.8 km/h 5.8 km/h 42 % 0.0 mm
18:06 17.9 °C 5.1 °C 1017.8 hPa WSW 9.3 km/h 9.3 km/h 43 % 0.0 mm
18:11 17.7 °C 4.9 °C 1017.8 hPa SSE 5.6 km/h 5.6 km/h 43 % 0.0 mm
18:16 17.5 °C 4.8 °C 1017.8 hPa NW 7.4 km/h 7.4 km/h 43 % 0.0 mm
18:21 17.4 °C 5.0 °C 1017.8 hPa WSW 9.3 km/h 9.3 km/h 44 % 0.0 mm
18:26 17.3 °C 4.6 °C 1017.8 hPa West 9.3 km/h 9.3 km/h 43 % 0.0 mm
18:31 17.2 °C 4.5 °C 1017.8 hPa ENE 4.2 km/h   43 % 0.0 mm
18:36 17.1 °C 4.7 °C 1017.8 hPa NW 3.7 km/h 3.7 km/h 44 % 0.0 mm
18:41 17.0 °C 4.7 °C 1016.8 hPa WNW 7.4 km/h 7.4 km/h 44 % 0.0 mm
18:46 16.9 °C 4.9 °C 1016.8 hPa West 3.7 km/h 3.7 km/h 45 % 0.0 mm
18:51 16.7 °C 4.7 °C 1016.8 hPa West 3.7 km/h 3.7 km/h 45 % 0.0 mm
18:56 16.6 °C 4.6 °C 1016.8 hPa West 2.6 km/h 2.6 km/h 45 % 0.0 mm
19:01 16.5 °C 4.5 °C 1016.8 hPa Calm     45 % 0.0 mm
19:06 16.3 °C 4.7 °C 1016.8 hPa SW 3.7 km/h 3.7 km/h 46 % 0.0 mm
19:11 16.3 °C 4.7 °C 1016.8 hPa WNW 1.9 km/h 1.9 km/h 46 % 0.0 mm
19:16 16.2 °C 4.6 °C 1016.8 hPa NW 2.3 km/h 2.3 km/h 46 % 0.0 mm
19:21 16.2 °C 4.6 °C 1016.8 hPa West 3.7 km/h 3.7 km/h 46 % 0.0 mm
19:26 16.1 °C 4.4 °C 1016.8 hPa WSW 5.6 km/h 5.6 km/h 46 % 0.0 mm
19:31 16.1 °C 4.8 °C 1016.8 hPa NNW 3.7 km/h 3.7 km/h 47 % 0.0 mm
19:36 16.0 °C 4.7 °C 1016.8 hPa NW 7.4 km/h 7.4 km/h 47 % 0.0 mm
19:41 16.0 °C 4.7 °C 1017.8 hPa North 2.6 km/h 2.6 km/h 47 % 0.0 mm
19:46 16.0 °C 4.7 °C 1017.8 hPa North 3.7 km/h 3.7 km/h 47 % 0.0 mm
19:51 16.0 °C 4.7 °C 1017.8 hPa NE 5.8 km/h 5.8 km/h 47 % 0.0 mm
19:56 16.2 °C 4.9 °C 1017.8 hPa ENE 5.6 km/h 5.6 km/h 47 % 0.0 mm
20:01 16.0 °C 5.0 °C 1017.8 hPa NNE 7.4 km/h 7.4 km/h 48 % 0.0 mm
20:06 15.9 °C 4.9 °C 1017.8 hPa NE 9.3 km/h 9.3 km/h 48 % 0.0 mm
20:11 15.7 °C 4.7 °C 1017.8 hPa ENE 3.7 km/h 3.7 km/h 48 % 0.0 mm
20:16 15.4 °C 4.7 °C 1017.8 hPa NNE 4.2 km/h 4.2 km/h 49 % 0.0 mm
20:21 15.4 °C 4.7 °C 1017.8 hPa NNE 5.6 km/h 5.6 km/h 49 % 0.0 mm
20:26 15.2 °C 4.6 °C 1017.8 hPa NE 4.2 km/h 4.2 km/h 49 % 0.0 mm
20:31 15.1 °C 4.7 °C 1017.8 hPa WNW 2.3 km/h 2.3 km/h 50 % 0.0 mm
20:36 15.0 °C 4.7 °C 1017.8 hPa NNE 3.7 km/h 3.7 km/h 50 % 0.0 mm
20:41 14.9 °C 4.6 °C 1017.8 hPa Calm     50 % 0.0 mm
20:46 14.8 °C 4.4 °C 1017.8 hPa NNE 5.6 km/h 5.6 km/h 50 % 0.0 mm
20:51 14.6 °C 4.6 °C 1017.8 hPa Calm     51 % 0.0 mm
20:56 14.6 °C 4.6 °C 1017.8 hPa NNE 5.6 km/h 5.6 km/h 51 % 0.0 mm
21:01 14.6 °C 4.6 °C 1017.8 hPa WNW 3.7 km/h 3.7 km/h 51 % 0.0 mm
21:06 14.5 °C 4.5 °C 1017.8 hPa NNE 4.2 km/h 4.2 km/h 51 % 0.0 mm
21:11 14.5 °C 4.5 °C 1017.8 hPa NNE 3.7 km/h 3.7 km/h 51 % 0.0 mm
21:16 14.4 °C 4.7 °C 1017.8 hPa NNE 5.6 km/h 5.6 km/h 52 % 0.0 mm
21:21 14.4 °C 4.7 °C 1017.8 hPa NNE 4.7 km/h 4.7 km/h 52 % 0.0 mm
21:26 14.5 °C 4.8 °C 1017.8 hPa NNE 7.4 km/h 7.4 km/h 52 % 0.0 mm
21:31 14.4 °C 4.7 °C 1017.8 hPa NNE 3.2 km/h 3.2 km/h 52 % 0.0 mm
21:36 14.3 °C 4.6 °C 1017.8 hPa NNE 5.6 km/h 5.6 km/h 52 % 0.0 mm
21:41 14.3 °C 4.6 °C 1017.8 hPa NNE 3.7 km/h 3.7 km/h 52 % 0.0 mm
21:46 14.2 °C 4.7 °C 1017.8 hPa NNE 2.3 km/h 2.3 km/h 53 % 0.0 mm
21:51 14.1 °C 4.7 °C 1017.8 hPa Calm     53 % 0.0 mm
21:56 14.0 °C 4.6 °C 1017.8 hPa Calm     53 % 0.0 mm
22:01 13.9 °C 4.4 °C 1017.8 hPa NW 1.9 km/h 1.9 km/h 53 % 0.0 mm
22:06 13.9 °C 4.4 °C 1017.8 hPa NE 3.7 km/h 3.7 km/h 53 % 0.0 mm
22:11 13.8 °C 4.4 °C 1017.8 hPa North 3.2 km/h 3.2 km/h 53 % 0.0 mm
22:16 13.7 °C 4.6 °C 1017.8 hPa NNE 1.9 km/h   54 % 0.0 mm
22:21 13.6 °C 4.4 °C 1017.8 hPa Calm     54 % 0.0 mm
22:26 13.5 °C 4.4 °C 1017.8 hPa North 1.9 km/h   54 % 0.0 mm
22:31 13.4 °C 4.3 °C 1017.8 hPa WNW 1.9 km/h   54 % 0.0 mm
22:36 13.3 °C 4.2 °C 1017.8 hPa WNW 1.9 km/h   54 % 0.0 mm
22:41 13.3 °C 4.4 °C 1017.8 hPa NNE 3.5 km/h   55 % 0.0 mm
22:46 13.2 °C 4.3 °C 1017.8 hPa NNW 1.9 km/h 1.9 km/h 55 % 0.0 mm
22:51 13.3 °C 4.4 °C 1017.8 hPa East 3.9 km/h 3.9 km/h 55 % 0.0 mm
22:56 13.3 °C 4.4 °C 1017.8 hPa WSW 5.6 km/h 5.6 km/h 55 % 0.0 mm
23:01 13.4 °C 4.6 °C 1017.8 hPa NNW 3.9 km/h 3.9 km/h 55 % 0.0 mm
23:06 13.6 °C 4.7 °C 1017.8 hPa West 1.9 km/h 1.9 km/h 55 % 0.0 mm
23:11 13.6 °C 4.7 °C 1017.8 hPa Calm     55 % 0.0 mm
23:16 13.6 °C 4.7 °C 1017.8 hPa Calm     55 % 0.0 mm
23:21 13.6 °C 4.7 °C 1017.8 hPa WSW 1.9 km/h   55 % 0.0 mm
23:26 13.6 °C 4.7 °C 1016.8 hPa Calm     55 % 0.0 mm
23:31 13.6 °C 4.7 °C 1016.8 hPa Calm     55 % 0.0 mm
23:36 13.5 °C 4.6 °C 1016.8 hPa North 2.3 km/h 2.3 km/h 55 % 0.0 mm
23:41 13.5 °C 4.6 °C 1016.8 hPa Calm     55 % 0.0 mm
23:46 13.5 °C 4.6 °C 1016.8 hPa NNE 3.7 km/h 3.7 km/h 55 % 0.0 mm
23:51 13.4 °C 4.6 °C 1016.8 hPa NNE 1.9 km/h   55 % 0.0 mm
23:56 13.2 °C 4.6 °C 1016.8 hPa North 3.7 km/h 3.7 km/h 56 % 0.0 mm
Meteo Sesrovires
Elogis d' Weather Underground - 3.5 mb

Guio original per  Jim McMurry - jmcmurry@mwt.net Adaptat per a la plantilla per  Wim van der Kuil - Leuven-Template.eu

Trobareu la nostra informacio del temps tambe a:

Weather Underground

AWEKAS